sensor_id;sensor_type;location;lat;lon;timestamp;P1;durP1;ratioP1;P2;durP2;ratioP2
39982;SDS011;25670;44.782;10.356;2023-06-14T00:01:03;6.55;;;6.05;;
39982;SDS011;25670;44.782;10.356;2023-06-14T00:03:31;7.40;;;6.80;;
39982;SDS011;25670;44.782;10.356;2023-06-14T00:05:58;7.82;;;6.45;;
39982;SDS011;25670;44.782;10.356;2023-06-14T00:08:24;8.73;;;7.10;;
39982;SDS011;25670;44.782;10.356;2023-06-14T00:10:51;7.30;;;6.82;;
39982;SDS011;25670;44.782;10.356;2023-06-14T00:13:17;15.93;;;7.22;;
39982;SDS011;25670;44.782;10.356;2023-06-14T00:15:43;11.70;;;7.40;;
39982;SDS011;25670;44.782;10.356;2023-06-14T00:18:10;7.80;;;6.95;;
39982;SDS011;25670;44.782;10.356;2023-06-14T00:20:37;14.00;;;7.15;;
39982;SDS011;25670;44.782;10.356;2023-06-14T00:23:04;19.80;;;7.65;;
39982;SDS011;25670;44.782;10.356;2023-06-14T00:25:31;11.25;;;6.93;;
39982;SDS011;25670;44.782;10.356;2023-06-14T00:27:57;8.75;;;6.75;;
39982;SDS011;25670;44.782;10.356;2023-06-14T00:30:24;7.55;;;6.93;;
39982;SDS011;25670;44.782;10.356;2023-06-14T00:32:50;18.52;;;6.15;;
39982;SDS011;25670;44.782;10.356;2023-06-14T00:35:17;11.10;;;6.45;;
39982;SDS011;25670;44.782;10.356;2023-06-14T00:37:43;8.25;;;6.55;;
39982;SDS011;25670;44.782;10.356;2023-06-14T00:40:09;13.52;;;7.25;;
39982;SDS011;25670;44.782;10.356;2023-06-14T00:42:36;16.10;;;6.35;;
39982;SDS011;25670;44.782;10.356;2023-06-14T00:45:04;7.45;;;5.97;;
39982;SDS011;25670;44.782;10.356;2023-06-14T00:47:31;12.52;;;7.57;;
39982;SDS011;25670;44.782;10.356;2023-06-14T00:49:57;10.25;;;6.60;;
39982;SDS011;25670;44.782;10.356;2023-06-14T00:52:24;18.35;;;8.80;;
39982;SDS011;25670;44.782;10.356;2023-06-14T00:54:50;8.60;;;7.80;;
39982;SDS011;25670;44.782;10.356;2023-06-14T00:57:17;9.00;;;7.32;;
39982;SDS011;25670;44.782;10.356;2023-06-14T00:59:44;11.15;;;7.38;;
39982;SDS011;25670;44.782;10.356;2023-06-14T01:02:12;16.75;;;6.43;;
39982;SDS011;25670;44.782;10.356;2023-06-14T01:04:40;9.20;;;6.35;;
39982;SDS011;25670;44.782;10.356;2023-06-14T01:07:12;6.35;;;5.95;;
39982;SDS011;25670;44.782;10.356;2023-06-14T01:15:25;10.15;;;5.63;;
39982;SDS011;25670;44.782;10.356;2023-06-14T01:17:53;8.05;;;5.03;;
39982;SDS011;25670;44.782;10.356;2023-06-14T01:20:23;6.28;;;5.78;;
39982;SDS011;25670;44.782;10.356;2023-06-14T01:22:58;9.90;;;5.47;;
39982;SDS011;25670;44.782;10.356;2023-06-14T01:25:25;16.67;;;5.65;;
39982;SDS011;25670;44.782;10.356;2023-06-14T01:28:04;14.65;;;5.05;;
39982;SDS011;25670;44.782;10.356;2023-06-14T01:30:37;11.77;;;5.47;;
39982;SDS011;25670;44.782;10.356;2023-06-14T01:33:17;5.43;;;4.43;;
39982;SDS011;25670;44.782;10.356;2023-06-14T01:35:47;14.07;;;5.47;;
39982;SDS011;25670;44.782;10.356;2023-06-14T01:38:15;9.32;;;5.80;;
39982;SDS011;25670;44.782;10.356;2023-06-14T01:40:44;7.95;;;5.38;;
39982;SDS011;25670;44.782;10.356;2023-06-14T01:43:15;8.40;;;5.28;;
39982;SDS011;25670;44.782;10.356;2023-06-14T01:45:42;13.45;;;5.45;;
39982;SDS011;25670;44.782;10.356;2023-06-14T01:48:10;11.57;;;5.40;;
39982;SDS011;25670;44.782;10.356;2023-06-14T01:50:37;5.57;;;5.25;;
39982;SDS011;25670;44.782;10.356;2023-06-14T01:53:06;8.40;;;4.97;;
39982;SDS011;25670;44.782;10.356;2023-06-14T01:55:36;7.25;;;5.38;;
39982;SDS011;25670;44.782;10.356;2023-06-14T01:58:06;18.83;;;5.53;;
39982;SDS011;25670;44.782;10.356;2023-06-14T02:00:32;14.63;;;5.10;;
39982;SDS011;25670;44.782;10.356;2023-06-14T02:02:58;16.27;;;5.35;;
39982;SDS011;25670;44.782;10.356;2023-06-14T02:05:26;12.48;;;6.32;;
39982;SDS011;25670;44.782;10.356;2023-06-14T02:07:53;7.28;;;5.45;;
39982;SDS011;25670;44.782;10.356;2023-06-14T02:10:20;17.35;;;5.50;;
39982;SDS011;25670;44.782;10.356;2023-06-14T02:12:46;5.65;;;4.97;;
39982;SDS011;25670;44.782;10.356;2023-06-14T02:15:13;15.45;;;5.68;;
39982;SDS011;25670;44.782;10.356;2023-06-14T02:17:42;14.32;;;5.80;;
39982;SDS011;25670;44.782;10.356;2023-06-14T02:20:10;6.30;;;5.28;;
39982;SDS011;25670;44.782;10.356;2023-06-14T02:22:37;13.75;;;6.15;;
39982;SDS011;25670;44.782;10.356;2023-06-14T02:25:06;13.38;;;6.85;;
39982;SDS011;25670;44.782;10.356;2023-06-14T02:27:34;6.70;;;6.07;;
39982;SDS011;25670;44.782;10.356;2023-06-14T02:30:03;14.15;;;7.10;;
39982;SDS011;25670;44.782;10.356;2023-06-14T02:32:32;7.82;;;6.63;;
39982;SDS011;25670;44.782;10.356;2023-06-14T02:35:02;13.45;;;7.47;;
39982;SDS011;25670;44.782;10.356;2023-06-14T02:37:29;11.10;;;6.53;;
39982;SDS011;25670;44.782;10.356;2023-06-14T02:39:55;16.00;;;7.50;;
39982;SDS011;25670;44.782;10.356;2023-06-14T02:42:23;16.13;;;8.05;;
39982;SDS011;25670;44.782;10.356;2023-06-14T02:44:49;16.55;;;8.40;;
39982;SDS011;25670;44.782;10.356;2023-06-14T02:47:17;13.18;;;7.70;;
39982;SDS011;25670;44.782;10.356;2023-06-14T02:49:44;17.33;;;7.07;;
39982;SDS011;25670;44.782;10.356;2023-06-14T02:52:13;12.95;;;7.25;;
39982;SDS011;25670;44.782;10.356;2023-06-14T02:54:40;18.55;;;7.70;;
39982;SDS011;25670;44.782;10.356;2023-06-14T02:57:08;12.95;;;7.68;;
39982;SDS011;25670;44.782;10.356;2023-06-14T02:59:35;8.57;;;7.70;;
39982;SDS011;25670;44.782;10.356;2023-06-14T03:02:03;21.48;;;8.90;;
39982;SDS011;25670;44.782;10.356;2023-06-14T03:04:31;18.25;;;8.50;;
39982;SDS011;25670;44.782;10.356;2023-06-14T03:07:03;12.45;;;9.57;;
39982;SDS011;25670;44.782;10.356;2023-06-14T03:09:39;19.65;;;9.48;;
39982;SDS011;25670;44.782;10.356;2023-06-14T03:12:08;10.73;;;9.13;;
39982;SDS011;25670;44.782;10.356;2023-06-14T03:14:35;12.73;;;9.20;;
39982;SDS011;25670;44.782;10.356;2023-06-14T03:17:03;9.55;;;8.70;;
39982;SDS011;25670;44.782;10.356;2023-06-14T03:19:33;17.40;;;9.15;;
39982;SDS011;25670;44.782;10.356;2023-06-14T03:21:59;16.20;;;10.43;;
39982;SDS011;25670;44.782;10.356;2023-06-14T03:24:28;14.20;;;9.68;;
39982;SDS011;25670;44.782;10.356;2023-06-14T03:26:58;10.50;;;9.52;;
39982;SDS011;25670;44.782;10.356;2023-06-14T03:29:26;17.83;;;10.00;;
39982;SDS011;25670;44.782;10.356;2023-06-14T03:31:58;10.38;;;8.80;;
39982;SDS011;25670;44.782;10.356;2023-06-14T03:34:32;9.32;;;8.43;;
39982;SDS011;25670;44.782;10.356;2023-06-14T03:36:58;11.20;;;8.70;;
39982;SDS011;25670;44.782;10.356;2023-06-14T03:39:25;19.73;;;8.70;;
39982;SDS011;25670;44.782;10.356;2023-06-14T03:41:51;17.77;;;8.65;;
39982;SDS011;25670;44.782;10.356;2023-06-14T03:44:17;17.17;;;9.90;;
39982;SDS011;25670;44.782;10.356;2023-06-14T03:46:45;21.25;;;9.15;;
39982;SDS011;25670;44.782;10.356;2023-06-14T03:49:13;9.52;;;8.27;;
39982;SDS011;25670;44.782;10.356;2023-06-14T03:51:39;15.40;;;8.98;;
39982;SDS011;25670;44.782;10.356;2023-06-14T03:54:06;14.40;;;8.15;;
39982;SDS011;25670;44.782;10.356;2023-06-14T03:56:33;16.02;;;8.43;;
39982;SDS011;25670;44.782;10.356;2023-06-14T03:59:00;12.50;;;7.68;;
39982;SDS011;25670;44.782;10.356;2023-06-14T04:01:28;13.43;;;8.57;;
39982;SDS011;25670;44.782;10.356;2023-06-14T04:03:58;12.27;;;7.53;;
39982;SDS011;25670;44.782;10.356;2023-06-14T04:06:25;8.57;;;7.47;;
39982;SDS011;25670;44.782;10.356;2023-06-14T04:08:58;8.77;;;7.50;;
39982;SDS011;25670;44.782;10.356;2023-06-14T04:11:29;10.73;;;7.38;;
39982;SDS011;25670;44.782;10.356;2023-06-14T04:13:57;14.48;;;7.57;;
39982;SDS011;25670;44.782;10.356;2023-06-14T04:16:25;7.82;;;6.93;;
39982;SDS011;25670;44.782;10.356;2023-06-14T04:18:52;16.02;;;7.20;;
39982;SDS011;25670;44.782;10.356;2023-06-14T04:21:21;12.90;;;6.80;;
39982;SDS011;25670;44.782;10.356;2023-06-14T04:23:52;17.33;;;6.65;;
39982;SDS011;25670;44.782;10.356;2023-06-14T04:26:21;8.43;;;7.03;;
39982;SDS011;25670;44.782;10.356;2023-06-14T04:28:49;13.63;;;7.60;;
39982;SDS011;25670;44.782;10.356;2023-06-14T04:31:17;18.70;;;8.15;;
39982;SDS011;25670;44.782;10.356;2023-06-14T04:33:44;47.40;;;15.30;;
39982;SDS011;25670;44.782;10.356;2023-06-14T04:36:16;37.90;;;13.73;;
39982;SDS011;25670;44.782;10.356;2023-06-14T04:38:46;47.65;;;15.90;;
39982;SDS011;25670;44.782;10.356;2023-06-14T04:41:12;26.85;;;9.82;;
39982;SDS011;25670;44.782;10.356;2023-06-14T04:43:41;13.07;;;7.25;;
39982;SDS011;25670;44.782;10.356;2023-06-14T04:46:08;15.30;;;7.78;;
39982;SDS011;25670;44.782;10.356;2023-06-14T04:48:39;39.08;;;12.10;;
39982;SDS011;25670;44.782;10.356;2023-06-14T04:51:07;37.60;;;9.52;;
39982;SDS011;25670;44.782;10.356;2023-06-14T04:53:34;12.38;;;8.05;;
39982;SDS011;25670;44.782;10.356;2023-06-14T04:56:01;18.98;;;7.50;;
39982;SDS011;25670;44.782;10.356;2023-06-14T04:58:30;56.17;;;17.67;;
39982;SDS011;25670;44.782;10.356;2023-06-14T05:00:57;40.30;;;12.60;;
39982;SDS011;25670;44.782;10.356;2023-06-14T05:03:28;49.13;;;15.35;;
39982;SDS011;25670;44.782;10.356;2023-06-14T05:05:57;24.90;;;9.15;;
39982;SDS011;25670;44.782;10.356;2023-06-14T05:08:24;20.90;;;7.03;;
39982;SDS011;25670;44.782;10.356;2023-06-14T05:10:50;14.05;;;6.55;;
39982;SDS011;25670;44.782;10.356;2023-06-14T05:13:16;14.05;;;6.35;;
39982;SDS011;25670;44.782;10.356;2023-06-14T05:15:45;8.25;;;6.13;;
39982;SDS011;25670;44.782;10.356;2023-06-14T05:18:11;10.85;;;6.82;;
39982;SDS011;25670;44.782;10.356;2023-06-14T05:20:38;12.82;;;6.65;;
39982;SDS011;25670;44.782;10.356;2023-06-14T05:23:05;12.00;;;6.55;;
39982;SDS011;25670;44.782;10.356;2023-06-14T05:25:31;13.98;;;6.95;;
39982;SDS011;25670;44.782;10.356;2023-06-14T05:27:58;18.20;;;6.90;;
39982;SDS011;25670;44.782;10.356;2023-06-14T05:30:24;10.32;;;6.57;;
39982;SDS011;25670;44.782;10.356;2023-06-14T05:32:50;13.18;;;7.53;;
39982;SDS011;25670;44.782;10.356;2023-06-14T05:35:18;10.82;;;6.72;;
39982;SDS011;25670;44.782;10.356;2023-06-14T05:37:44;15.52;;;6.32;;
39982;SDS011;25670;44.782;10.356;2023-06-14T05:40:11;9.65;;;5.85;;
39982;SDS011;25670;44.782;10.356;2023-06-14T05:42:37;8.45;;;6.20;;
39982;SDS011;25670;44.782;10.356;2023-06-14T05:45:04;11.73;;;5.65;;
39982;SDS011;25670;44.782;10.356;2023-06-14T05:47:31;10.85;;;6.38;;
39982;SDS011;25670;44.782;10.356;2023-06-14T05:49:57;5.80;;;5.50;;
39982;SDS011;25670;44.782;10.356;2023-06-14T05:52:24;6.25;;;5.85;;
39982;SDS011;25670;44.782;10.356;2023-06-14T05:54:50;7.95;;;6.60;;
39982;SDS011;25670;44.782;10.356;2023-06-14T05:57:17;9.32;;;6.00;;
39982;SDS011;25670;44.782;10.356;2023-06-14T05:59:43;17.08;;;7.22;;
39982;SDS011;25670;44.782;10.356;2023-06-14T06:02:09;11.20;;;6.43;;
39982;SDS011;25670;44.782;10.356;2023-06-14T06:04:35;7.15;;;6.47;;
39982;SDS011;25670;44.782;10.356;2023-06-14T06:07:01;9.93;;;7.20;;
39982;SDS011;25670;44.782;10.356;2023-06-14T06:09:29;15.88;;;6.70;;
39982;SDS011;25670;44.782;10.356;2023-06-14T06:11:55;10.25;;;6.72;;
39982;SDS011;25670;44.782;10.356;2023-06-14T06:14:21;10.90;;;6.55;;
39982;SDS011;25670;44.782;10.356;2023-06-14T06:16:48;10.75;;;6.70;;
39982;SDS011;25670;44.782;10.356;2023-06-14T06:19:14;14.65;;;6.70;;
39982;SDS011;25670;44.782;10.356;2023-06-14T06:21:40;7.00;;;6.55;;
39982;SDS011;25670;44.782;10.356;2023-06-14T06:24:07;16.33;;;6.65;;
39982;SDS011;25670;44.782;10.356;2023-06-14T06:26:33;16.08;;;7.95;;
39982;SDS011;25670;44.782;10.356;2023-06-14T06:29:00;11.90;;;7.65;;
39982;SDS011;25670;44.782;10.356;2023-06-14T06:31:26;12.73;;;6.50;;
39982;SDS011;25670;44.782;10.356;2023-06-14T06:33:53;10.43;;;7.38;;
39982;SDS011;25670;44.782;10.356;2023-06-14T06:36:20;12.57;;;8.93;;
39982;SDS011;25670;44.782;10.356;2023-06-14T06:38:47;10.35;;;8.82;;
39982;SDS011;25670;44.782;10.356;2023-06-14T06:41:13;13.55;;;8.13;;
39982;SDS011;25670;44.782;10.356;2023-06-14T06:43:39;12.43;;;7.78;;
39982;SDS011;25670;44.782;10.356;2023-06-14T06:46:08;9.70;;;8.50;;
39982;SDS011;25670;44.782;10.356;2023-06-14T06:48:36;13.90;;;8.20;;
39982;SDS011;25670;44.782;10.356;2023-06-14T06:51:03;9.35;;;8.52;;
39982;SDS011;25670;44.782;10.356;2023-06-14T06:53:31;10.45;;;8.18;;
39982;SDS011;25670;44.782;10.356;2023-06-14T06:55:57;14.05;;;7.65;;
39982;SDS011;25670;44.782;10.356;2023-06-14T06:58:24;9.35;;;8.55;;
39982;SDS011;25670;44.782;10.356;2023-06-14T07:00:50;15.45;;;8.60;;
39982;SDS011;25670;44.782;10.356;2023-06-14T07:03:16;8.75;;;7.63;;
39982;SDS011;25670;44.782;10.356;2023-06-14T07:05:43;11.88;;;8.55;;
39982;SDS011;25670;44.782;10.356;2023-06-14T07:08:09;9.50;;;7.63;;
39982;SDS011;25670;44.782;10.356;2023-06-14T07:10:35;9.60;;;7.93;;
39982;SDS011;25670;44.782;10.356;2023-06-14T07:13:03;14.00;;;7.22;;
39982;SDS011;25670;44.782;10.356;2023-06-14T07:15:29;8.15;;;7.50;;
39982;SDS011;25670;44.782;10.356;2023-06-14T07:17:56;7.40;;;6.80;;
39982;SDS011;25670;44.782;10.356;2023-06-14T07:20:25;10.75;;;7.32;;
39982;SDS011;25670;44.782;10.356;2023-06-14T07:22:51;11.45;;;7.32;;
39982;SDS011;25670;44.782;10.356;2023-06-14T07:25:18;8.10;;;7.40;;
39982;SDS011;25670;44.782;10.356;2023-06-14T07:27:45;8.07;;;7.40;;
39982;SDS011;25670;44.782;10.356;2023-06-14T07:30:12;7.43;;;6.75;;
39982;SDS011;25670;44.782;10.356;2023-06-14T07:32:38;18.98;;;7.65;;
39982;SDS011;25670;44.782;10.356;2023-06-14T07:35:05;6.70;;;6.10;;
39982;SDS011;25670;44.782;10.356;2023-06-14T07:37:32;7.50;;;6.93;;
39982;SDS011;25670;44.782;10.356;2023-06-14T07:39:58;11.63;;;5.90;;
39982;SDS011;25670;44.782;10.356;2023-06-14T07:42:24;12.80;;;8.75;;
39982;SDS011;25670;44.782;10.356;2023-06-14T07:44:51;8.80;;;8.00;;
39982;SDS011;25670;44.782;10.356;2023-06-14T07:47:19;9.82;;;9.18;;
39982;SDS011;25670;44.782;10.356;2023-06-14T07:49:45;9.75;;;9.02;;
39982;SDS011;25670;44.782;10.356;2023-06-14T07:52:11;12.77;;;11.63;;
39982;SDS011;25670;44.782;10.356;2023-06-14T07:54:39;13.00;;;11.90;;
39982;SDS011;25670;44.782;10.356;2023-06-14T07:57:06;14.05;;;12.48;;
39982;SDS011;25670;44.782;10.356;2023-06-14T07:59:32;14.32;;;12.75;;
39982;SDS011;25670;44.782;10.356;2023-06-14T08:01:59;20.40;;;12.82;;
39982;SDS011;25670;44.782;10.356;2023-06-14T08:04:25;15.73;;;13.80;;
39982;SDS011;25670;44.782;10.356;2023-06-14T08:06:51;14.68;;;13.45;;
39982;SDS011;25670;44.782;10.356;2023-06-14T08:09:17;14.77;;;13.30;;
39982;SDS011;25670;44.782;10.356;2023-06-14T08:11:44;15.75;;;14.02;;
39982;SDS011;25670;44.782;10.356;2023-06-14T08:14:10;18.88;;;15.43;;
39982;SDS011;25670;44.782;10.356;2023-06-14T08:16:37;17.58;;;15.98;;
39982;SDS011;25670;44.782;10.356;2023-06-14T08:19:03;18.90;;;15.82;;
39982;SDS011;25670;44.782;10.356;2023-06-14T08:21:29;17.38;;;15.63;;
39982;SDS011;25670;44.782;10.356;2023-06-14T08:23:57;16.00;;;14.40;;
39982;SDS011;25670;44.782;10.356;2023-06-14T08:26:23;19.80;;;15.32;;
39982;SDS011;25670;44.782;10.356;2023-06-14T08:28:49;18.80;;;14.75;;
39982;SDS011;25670;44.782;10.356;2023-06-14T08:31:16;18.58;;;14.65;;
39982;SDS011;25670;44.782;10.356;2023-06-14T08:33:42;15.43;;;13.88;;
39982;SDS011;25670;44.782;10.356;2023-06-14T08:36:08;17.35;;;14.70;;
39982;SDS011;25670;44.782;10.356;2023-06-14T08:38:36;15.98;;;14.43;;
39982;SDS011;25670;44.782;10.356;2023-06-14T08:41:03;14.52;;;13.20;;
39982;SDS011;25670;44.782;10.356;2023-06-14T08:43:32;14.95;;;13.73;;
39982;SDS011;25670;44.782;10.356;2023-06-14T08:46:00;12.95;;;12.02;;
39982;SDS011;25670;44.782;10.356;2023-06-14T08:48:28;16.70;;;15.43;;
39982;SDS011;25670;44.782;10.356;2023-06-14T08:51:00;20.48;;;18.40;;
39982;SDS011;25670;44.782;10.356;2023-06-14T08:53:33;19.45;;;17.42;;
39982;SDS011;25670;44.782;10.356;2023-06-14T08:56:02;17.88;;;15.98;;
39982;SDS011;25670;44.782;10.356;2023-06-14T08:58:31;18.20;;;16.40;;
39982;SDS011;25670;44.782;10.356;2023-06-14T09:01:00;23.55;;;17.48;;
39982;SDS011;25670;44.782;10.356;2023-06-14T09:03:27;20.02;;;17.95;;
39982;SDS011;25670;44.782;10.356;2023-06-14T09:05:56;20.15;;;18.27;;
39982;SDS011;25670;44.782;10.356;2023-06-14T09:08:25;18.88;;;17.02;;
39982;SDS011;25670;44.782;10.356;2023-06-14T09:10:52;22.10;;;19.02;;
39982;SDS011;25670;44.782;10.356;2023-06-14T09:13:18;24.48;;;20.15;;
39982;SDS011;25670;44.782;10.356;2023-06-14T09:15:44;21.63;;;19.40;;
39982;SDS011;25670;44.782;10.356;2023-06-14T09:18:11;21.55;;;16.17;;
39982;SDS011;25670;44.782;10.356;2023-06-14T09:20:37;26.58;;;19.45;;
39982;SDS011;25670;44.782;10.356;2023-06-14T09:23:03;19.13;;;17.13;;
39982;SDS011;25670;44.782;10.356;2023-06-14T09:25:31;19.50;;;17.73;;
39982;SDS011;25670;44.782;10.356;2023-06-14T09:27:57;16.80;;;14.88;;
39982;SDS011;25670;44.782;10.356;2023-06-14T09:30:23;16.55;;;15.00;;
39982;SDS011;25670;44.782;10.356;2023-06-14T09:32:49;17.00;;;15.35;;
39982;SDS011;25670;44.782;10.356;2023-06-14T09:35:17;18.75;;;16.25;;
39982;SDS011;25670;44.782;10.356;2023-06-14T09:37:43;15.75;;;14.30;;
39982;SDS011;25670;44.782;10.356;2023-06-14T09:40:10;16.90;;;15.05;;
39982;SDS011;25670;44.782;10.356;2023-06-14T09:42:37;20.30;;;15.32;;
39982;SDS011;25670;44.782;10.356;2023-06-14T09:45:03;17.35;;;15.75;;
39982;SDS011;25670;44.782;10.356;2023-06-14T09:47:30;14.85;;;13.32;;
39982;SDS011;25670;44.782;10.356;2023-06-14T09:49:56;12.68;;;11.77;;
39982;SDS011;25670;44.782;10.356;2023-06-14T09:52:22;11.40;;;10.25;;
39982;SDS011;25670;44.782;10.356;2023-06-14T09:54:49;11.98;;;9.80;;
39982;SDS011;25670;44.782;10.356;2023-06-14T09:57:16;13.25;;;10.98;;
39982;SDS011;25670;44.782;10.356;2023-06-14T09:59:47;11.63;;;10.32;;
39982;SDS011;25670;44.782;10.356;2023-06-14T10:02:26;10.80;;;9.40;;
39982;SDS011;25670;44.782;10.356;2023-06-14T10:05:06;8.48;;;7.68;;
39982;SDS011;25670;44.782;10.356;2023-06-14T10:10:16;8.95;;;7.80;;
39982;SDS011;25670;44.782;10.356;2023-06-14T10:12:42;8.65;;;7.90;;
39982;SDS011;25670;44.782;10.356;2023-06-14T10:15:14;9.00;;;8.27;;
39982;SDS011;25670;44.782;10.356;2023-06-14T10:18:06;8.70;;;7.95;;
39982;SDS011;25670;44.782;10.356;2023-06-14T10:21:00;7.38;;;6.65;;
39982;SDS011;25670;44.782;10.356;2023-06-14T10:23:35;7.95;;;7.55;;
39982;SDS011;25670;44.782;10.356;2023-06-14T10:26:05;7.57;;;7.07;;
39982;SDS011;25670;44.782;10.356;2023-06-14T10:28:31;8.57;;;7.85;;
39982;SDS011;25670;44.782;10.356;2023-06-14T10:31:11;8.93;;;8.25;;
39982;SDS011;25670;44.782;10.356;2023-06-14T10:38:56;9.30;;;7.53;;
39982;SDS011;25670;44.782;10.356;2023-06-14T10:41:26;8.45;;;7.85;;
39982;SDS011;25670;44.782;10.356;2023-06-14T10:46:39;9.40;;;8.60;;
39982;SDS011;25670;44.782;10.356;2023-06-14T10:49:06;9.95;;;9.02;;
39982;SDS011;25670;44.782;10.356;2023-06-14T10:51:39;10.40;;;9.65;;
39982;SDS011;25670;44.782;10.356;2023-06-14T10:54:13;11.50;;;10.73;;
39982;SDS011;25670;44.782;10.356;2023-06-14T10:56:46;11.50;;;10.82;;
39982;SDS011;25670;44.782;10.356;2023-06-14T10:59:17;10.77;;;10.10;;
39982;SDS011;25670;44.782;10.356;2023-06-14T11:04:23;11.10;;;10.30;;
39982;SDS011;25670;44.782;10.356;2023-06-14T11:12:49;11.27;;;9.77;;
39982;SDS011;25670;44.782;10.356;2023-06-14T11:15:19;10.63;;;9.60;;
39982;SDS011;25670;44.782;10.356;2023-06-14T11:17:51;9.93;;;8.82;;
39982;SDS011;25670;44.782;10.356;2023-06-14T11:20:24;12.82;;;8.48;;
39982;SDS011;25670;44.782;10.356;2023-06-14T11:22:52;7.43;;;6.70;;
39982;SDS011;25670;44.782;10.356;2023-06-14T11:25:19;6.95;;;6.35;;
39982;SDS011;25670;44.782;10.356;2023-06-14T11:27:45;9.02;;;6.93;;
39982;SDS011;25670;44.782;10.356;2023-06-14T11:30:12;8.32;;;7.93;;
39982;SDS011;25670;44.782;10.356;2023-06-14T11:32:39;7.18;;;6.50;;
39982;SDS011;25670;44.782;10.356;2023-06-14T11:35:06;8.15;;;5.97;;
39982;SDS011;25670;44.782;10.356;2023-06-14T11:37:36;7.57;;;7.07;;
39982;SDS011;25670;44.782;10.356;2023-06-14T11:40:06;6.97;;;6.47;;
39982;SDS011;25670;44.782;10.356;2023-06-14T11:42:35;7.10;;;6.15;;
39982;SDS011;25670;44.782;10.356;2023-06-14T11:45:02;6.78;;;6.07;;
39982;SDS011;25670;44.782;10.356;2023-06-14T11:47:31;8.38;;;6.90;;
39982;SDS011;25670;44.782;10.356;2023-06-14T11:49:59;7.35;;;6.68;;
39982;SDS011;25670;44.782;10.356;2023-06-14T11:52:26;5.70;;;5.30;;
39982;SDS011;25670;44.782;10.356;2023-06-14T11:54:53;5.15;;;4.82;;
39982;SDS011;25670;44.782;10.356;2023-06-14T11:57:19;6.32;;;5.78;;
39982;SDS011;25670;44.782;10.356;2023-06-14T11:59:46;6.07;;;5.68;;
39982;SDS011;25670;44.782;10.356;2023-06-14T12:02:16;6.55;;;5.95;;
39982;SDS011;25670;44.782;10.356;2023-06-14T12:04:43;5.35;;;5.05;;
39982;SDS011;25670;44.782;10.356;2023-06-14T12:07:13;8.00;;;5.18;;
39982;SDS011;25670;44.782;10.356;2023-06-14T12:12:20;4.82;;;4.53;;
39982;SDS011;25670;44.782;10.356;2023-06-14T12:14:47;7.63;;;4.55;;
39982;SDS011;25670;44.782;10.356;2023-06-14T12:17:16;4.00;;;3.70;;
39982;SDS011;25670;44.782;10.356;2023-06-14T12:19:43;4.95;;;4.10;;
39982;SDS011;25670;44.782;10.356;2023-06-14T12:22:11;5.60;;;3.83;;
39982;SDS011;25670;44.782;10.356;2023-06-14T12:24:38;4.45;;;4.15;;
39982;SDS011;25670;44.782;10.356;2023-06-14T12:27:05;6.00;;;3.72;;
39982;SDS011;25670;44.782;10.356;2023-06-14T12:29:31;3.45;;;3.25;;
39982;SDS011;25670;44.782;10.356;2023-06-14T12:31:58;4.63;;;3.67;;
39982;SDS011;25670;44.782;10.356;2023-06-14T12:34:24;3.92;;;3.28;;
39982;SDS011;25670;44.782;10.356;2023-06-14T12:36:52;3.63;;;3.33;;
39982;SDS011;25670;44.782;10.356;2023-06-14T12:39:20;3.38;;;2.92;;
39982;SDS011;25670;44.782;10.356;2023-06-14T12:41:46;3.63;;;3.42;;
39982;SDS011;25670;44.782;10.356;2023-06-14T12:44:14;3.45;;;3.20;;
39982;SDS011;25670;44.782;10.356;2023-06-14T12:46:43;4.72;;;4.43;;
39982;SDS011;25670;44.782;10.356;2023-06-14T12:49:10;4.50;;;4.10;;
39982;SDS011;25670;44.782;10.356;2023-06-14T12:51:37;4.28;;;4.07;;
39982;SDS011;25670;44.782;10.356;2023-06-14T12:54:04;5.00;;;4.72;;
39982;SDS011;25670;44.782;10.356;2023-06-14T12:56:31;6.25;;;5.85;;
39982;SDS011;25670;44.782;10.356;2023-06-14T12:58:58;5.35;;;4.80;;
39982;SDS011;25670;44.782;10.356;2023-06-14T13:01:24;6.35;;;5.85;;
39982;SDS011;25670;44.782;10.356;2023-06-14T13:03:51;5.75;;;5.43;;
39982;SDS011;25670;44.782;10.356;2023-06-14T13:06:22;11.02;;;4.72;;
39982;SDS011;25670;44.782;10.356;2023-06-14T13:08:48;5.70;;;5.22;;
39982;SDS011;25670;44.782;10.356;2023-06-14T13:11:15;9.30;;;5.03;;
39982;SDS011;25670;44.782;10.356;2023-06-14T13:13:42;6.00;;;5.50;;
39982;SDS011;25670;44.782;10.356;2023-06-14T13:16:08;4.60;;;4.35;;
39982;SDS011;25670;44.782;10.356;2023-06-14T13:18:34;4.55;;;4.25;;
39982;SDS011;25670;44.782;10.356;2023-06-14T13:21:00;4.60;;;4.15;;
39982;SDS011;25670;44.782;10.356;2023-06-14T13:23:26;11.38;;;4.68;;
39982;SDS011;25670;44.782;10.356;2023-06-14T13:25:53;4.97;;;4.18;;
39982;SDS011;25670;44.782;10.356;2023-06-14T13:28:20;6.43;;;4.45;;
39982;SDS011;25670;44.782;10.356;2023-06-14T13:30:46;3.88;;;3.58;;
39982;SDS011;25670;44.782;10.356;2023-06-14T13:33:13;4.70;;;4.18;;
39982;SDS011;25670;44.782;10.356;2023-06-14T13:35:40;4.05;;;3.65;;
39982;SDS011;25670;44.782;10.356;2023-06-14T13:38:08;3.85;;;3.47;;
39982;SDS011;25670;44.782;10.356;2023-06-14T13:40:35;4.25;;;4.00;;
39982;SDS011;25670;44.782;10.356;2023-06-14T13:43:01;3.78;;;3.47;;
39982;SDS011;25670;44.782;10.356;2023-06-14T13:45:28;3.55;;;3.35;;
39982;SDS011;25670;44.782;10.356;2023-06-14T13:47:54;3.67;;;3.38;;
39982;SDS011;25670;44.782;10.356;2023-06-14T13:50:20;4.65;;;4.35;;
39982;SDS011;25670;44.782;10.356;2023-06-14T13:52:46;3.35;;;3.13;;
39982;SDS011;25670;44.782;10.356;2023-06-14T13:55:13;5.25;;;3.45;;
39982;SDS011;25670;44.782;10.356;2023-06-14T13:57:39;3.70;;;3.50;;
39982;SDS011;25670;44.782;10.356;2023-06-14T14:00:06;3.55;;;3.35;;
39982;SDS011;25670;44.782;10.356;2023-06-14T14:02:41;5.90;;;3.67;;
39982;SDS011;25670;44.782;10.356;2023-06-14T14:05:08;3.20;;;3.00;;
39982;SDS011;25670;44.782;10.356;2023-06-14T14:07:34;3.03;;;2.83;;
39982;SDS011;25670;44.782;10.356;2023-06-14T14:10:02;2.53;;;2.42;;
39982;SDS011;25670;44.782;10.356;2023-06-14T14:12:28;2.88;;;2.78;;
39982;SDS011;25670;44.782;10.356;2023-06-14T14:14:54;3.40;;;3.20;;
39982;SDS011;25670;44.782;10.356;2023-06-14T14:17:21;3.42;;;3.22;;
39982;SDS011;25670;44.782;10.356;2023-06-14T14:19:48;3.53;;;2.72;;
39982;SDS011;25670;44.782;10.356;2023-06-14T14:22:14;2.75;;;2.60;;
39982;SDS011;25670;44.782;10.356;2023-06-14T14:24:41;3.58;;;3.10;;
39982;SDS011;25670;44.782;10.356;2023-06-14T14:27:07;3.70;;;3.50;;
39982;SDS011;25670;44.782;10.356;2023-06-14T14:29:33;4.97;;;2.97;;
39982;SDS011;25670;44.782;10.356;2023-06-14T14:32:00;3.80;;;3.42;;
39982;SDS011;25670;44.782;10.356;2023-06-14T14:34:26;4.53;;;3.45;;
39982;SDS011;25670;44.782;10.356;2023-06-14T14:36:53;4.90;;;3.38;;
39982;SDS011;25670;44.782;10.356;2023-06-14T14:39:20;4.22;;;3.92;;
39982;SDS011;25670;44.782;10.356;2023-06-14T14:41:46;3.47;;;3.28;;
39982;SDS011;25670;44.782;10.356;2023-06-14T14:44:12;4.50;;;4.20;;
39982;SDS011;25670;44.782;10.356;2023-06-14T14:46:38;4.45;;;4.15;;
39982;SDS011;25670;44.782;10.356;2023-06-14T14:49:05;5.47;;;3.60;;
39982;SDS011;25670;44.782;10.356;2023-06-14T14:51:31;4.85;;;3.40;;
39982;SDS011;25670;44.782;10.356;2023-06-14T14:53:57;3.50;;;3.30;;
39982;SDS011;25670;44.782;10.356;2023-06-14T14:56:23;6.80;;;3.72;;